OIBL  Bandar Lengeh Airport

Add Bookmark

Bandar Lengeh, Iran

Status IATA
Operational BDH
Latitude Longitude
26° 31' 55" N 54° 49' 29" E
26.532000 54.824799
Local (DST + 5) UTC (GMT + 4)
Oct 22, 2014 09:52 Oct 22, 2014 06:22
Sunrise-Sunset Local UTC
Begin Civil Twilight 05:29 01:59
Sunrise 05:52 02:22
Sunset 05:17 13:47
End Civil Twilight 05:41 14:11

Current Weather

METAR Observed VFR
OIBL 220600Z 21004KT CAVOK 32/21 Q1015 Wed, Oct 22, 2014 @ 06:00 UTC
(22 Minutes ago)
Visual Flight Rules
Wind Visibility Clouds Conditions
210° at 4 knots (7 kph) 10 km or more
  • Clear skies
  • No significant weather
Temperatures Readings Precipitation
Current Temp 32°C (90°F)
Dewpoint 21°C (70°F)
Heat Index 36°C (96°F)
Humidity 52%
Altimeter 29.97"Hg
Sea Level Pressure 1015mb
Field Elevation 45.93'
None Recorded

Additional weather within a 92.6km radius of OIBL

Map ICAO Location
OIBS 74.8km S (202°)
OIBA 75.7km S (164°)
OIBK 83.9km W (270°)

24 Hour Weather History

Loading
-

24 Hour Weather Graphs

Loading
-

CheckWX.com is intended as a tool to help pilots better visualize weather data. It is not intended as a substitute for an official weather briefing obtained from a Flight Service Station. CheckWX.com does not meet the FAA requirements for an official pre-flight weather briefing. Therefore, it's important that pilots still call and obtain an official FSS pre-flight weather briefing.